Time;durP1;ratioP1;P1;durP2;ratioP2;P2;SDS_P1;SDS_P2;PMS_P1;PMS_P2;Temp;Humidity;BMP_temperature;BMP_pressure;BME280_temperature;BME280_humidity;BME280_pressure;Samples;Min_cycle;Max_cycle;Signal;HPM_P1;HPM_P2
2022/02/01 00:01:37;;;;;;;20.33;18.83;;;2.70;69.30;;;;;;5093664;28;20070;-75
2022/02/01 00:04:06;;;;;;;18.33;17.20;;;2.60;69.20;;;;;;5075600;28;20020;-74
2022/02/01 00:19:49;;;;;;;18.77;17.30;;;2.60;69.20;;;;;;5097847;28;20086;-75
2022/02/01 00:41:17;;;;;;;18.08;16.73;;;2.70;69.10;;;;;;5097268;28;20024;-73
2022/02/01 00:43:42;;;;;;;20.67;19.05;;;2.70;69.00;;;;;;5096928;28;20035;-73
2022/02/01 00:46:08;;;;;;;19.38;17.63;;;2.70;69.00;;;;;;5079081;28;20032;-74
2022/02/01 00:48:34;;;;;;;17.70;16.50;;;2.70;69.00;;;;;;5097095;28;20028;-75
2022/02/01 00:50:59;;;;;;;17.52;16.27;;;2.70;68.90;;;;;;5097283;28;20032;-73
2022/02/01 00:53:31;;;;;;;18.00;16.77;;;2.70;68.80;;;;;;5078922;28;20056;-74
2022/02/01 00:55:57;;;;;;;17.05;15.85;;;2.70;68.90;;;;;;5078823;28;20035;-73
2022/02/01 00:58:23;;;;;;;18.38;16.92;;;2.70;68.90;;;;;;5078329;28;20040;-74
2022/02/01 01:00:49;;;;;;;17.15;15.82;;;2.70;68.90;;;;;;5097050;28;20032;-72
2022/02/01 01:03:15;;;;;;;18.77;17.58;;;2.70;69.00;;;;;;5077756;28;20028;-70
2022/02/01 01:05:41;;;;;;;18.90;17.60;;;2.70;69.50;;;;;;5095770;28;20111;-73
2022/02/01 01:08:07;;;;;;;21.35;20.05;;;2.70;68.80;;;;;;5078640;28;20131;-73
2022/02/01 01:10:34;;;;;;;19.92;17.95;;;2.70;68.80;;;;;;5078514;28;20521;-74
2022/02/01 01:16:18;;;;;;;18.70;17.30;;;2.60;68.60;;;;;;5096817;28;20100;-72
2022/02/01 01:45:39;;;;;;;18.58;16.77;;;2.60;68.80;;;;;;5096302;28;20126;-73
2022/02/01 01:53:33;;;;;;;18.95;17.70;;;2.60;68.60;;;;;;5096433;28;20472;-75
2022/02/01 01:55:58;;;;;;;18.63;17.38;;;2.60;68.60;;;;;;5077991;28;20063;-74
2022/02/01 01:58:27;;;;;;;19.95;18.15;;;2.60;68.70;;;;;;5095985;28;20523;-74
2022/02/01 02:03:19;;;;;;;19.05;17.48;;;2.50;68.60;;;;;;5095830;28;20437;-74
2022/02/01 02:05:47;;;;;;;18.83;17.42;;;2.50;68.60;;;;;;5095880;28;20028;-75
2022/02/01 02:08:16;;;;;;;18.40;17.05;;;2.40;68.50;;;;;;5095718;28;20038;-74
2022/02/01 02:16:00;;;;;;;18.05;16.92;;;2.40;68.60;;;;;;5095421;28;20024;-75
2022/02/01 02:18:32;;;;;;;20.17;18.48;;;2.40;68.60;;;;;;5077673;28;20081;-75
2022/02/01 02:20:59;;;;;;;20.52;19.13;;;2.40;68.70;;;;;;5077054;28;20031;-76
2022/02/01 02:23:25;;;;;;;22.45;21.08;;;2.40;68.70;;;;;;5095208;28;20117;-75
2022/02/01 02:25:55;;;;;;;21.38;19.45;;;2.30;68.70;;;;;;5077099;28;20036;-75
2022/02/01 02:28:22;;;;;;;22.38;20.85;;;2.30;68.70;;;;;;5094611;28;20028;-74
2022/02/01 02:30:53;;;;;;;21.38;19.50;;;2.30;68.70;;;;;;5077161;28;20040;-74
2022/02/01 02:33:19;;;;;;;22.92;20.80;;;2.30;68.70;;;;;;5076976;28;20031;-74
2022/02/01 02:35:58;;;;;;;23.70;21.15;;;2.30;68.80;;;;;;5076992;28;20031;-74
2022/02/01 02:38:39;;;;;;;23.55;21.33;;;2.20;68.80;;;;;;5077581;28;20055;-74
2022/02/01 02:46:34;;;;;;;19.02;17.48;;;2.10;68.90;;;;;;5094545;28;20096;-74
2022/02/01 02:49:00;;;;;;;19.80;18.38;;;2.00;68.80;;;;;;5094923;28;20102;-73
2022/02/01 02:51:29;;;;;;;21.20;19.60;;;1.90;68.90;;;;;;5076648;28;20028;-74
2022/02/01 02:53:54;;;;;;;21.65;19.90;;;1.90;69.10;;;;;;5094992;28;20024;-74
2022/02/01 02:56:20;;;;;;;20.90;18.83;;;1.80;69.00;;;;;;5094644;28;20024;-75
2022/02/01 02:58:51;;;;;;;20.17;18.77;;;1.80;69.10;;;;;;5094482;28;20368;-73
2022/02/01 03:01:18;;;;;;;18.20;16.98;;;1.70;69.10;;;;;;5076047;28;20038;-73
2022/02/01 03:03:44;;;;;;;21.55;19.92;;;1.70;69.20;;;;;;5076515;28;20039;-74
2022/02/01 03:06:10;;;;;;;19.00;17.77;;;1.60;69.30;;;;;;5076392;28;20028;-73
2022/02/01 03:08:36;;;;;;;21.23;18.90;;;1.60;69.30;;;;;;5094537;28;20024;-75
2022/02/01 03:11:05;;;;;;;19.35;17.48;;;1.60;69.50;;;;;;5094448;28;20096;-74
2022/02/01 03:13:32;;;;;;;19.10;17.70;;;1.50;69.40;;;;;;5076359;28;20031;-73
2022/02/01 03:21:08;;;;;;;19.17;17.38;;;1.50;69.50;;;;;;5094577;28;20031;-74
2022/02/01 03:23:34;;;;;;;19.60;18.38;;;1.50;69.50;;;;;;5094538;28;20043;-73
2022/02/01 03:25:59;;;;;;;19.35;17.90;;;1.40;69.50;;;;;;5075861;28;20130;-72
2022/02/01 03:28:25;;;;;;;20.10;18.75;;;1.40;69.60;;;;;;5076197;28;20028;-72
2022/02/01 03:30:51;;;;;;;21.23;19.58;;;1.40;69.70;;;;;;5076567;28;20020;-72
2022/02/01 03:33:16;;;;;;;19.90;18.45;;;1.40;69.80;;;;;;5094421;28;20047;-72
2022/02/01 03:35:42;;;;;;;21.20;19.67;;;1.30;69.70;;;;;;5076059;28;20020;-74
2022/02/01 03:38:08;;;;;;;21.15;19.35;;;1.30;69.60;;;;;;5094146;28;20370;-73
2022/02/01 03:40:36;;;;;;;20.70;19.10;;;1.20;69.70;;;;;;5093252;28;20032;-73
2022/02/01 03:43:02;;;;;;;22.23;20.20;;;1.20;69.90;;;;;;5094038;28;20103;-74
2022/02/01 03:45:28;;;;;;;22.25;20.20;;;1.10;69.90;;;;;;5093859;28;20436;-74
2022/02/01 03:47:53;;;;;;;24.10;22.38;;;1.10;69.90;;;;;;5075253;28;20039;-74
2022/02/01 03:50:19;;;;;;;21.35;19.35;;;1.10;70.00;;;;;;5075878;28;20032;-74
2022/02/01 03:52:45;;;;;;;20.48;18.88;;;1.10;70.00;;;;;;5093293;28;20073;-72
2022/02/01 03:55:11;;;;;;;20.42;18.67;;;1.10;69.90;;;;;;5093957;28;20032;-70
2022/02/01 03:57:36;;;;;;;22.33;20.42;;;1.10;70.00;;;;;;5075709;28;20032;-70
2022/02/01 04:00:05;;;;;;;22.40;20.42;;;1.10;70.00;;;;;;5093920;28;20451;-70
2022/02/01 04:02:31;;;;;;;24.23;22.13;;;1.10;70.00;;;;;;5093744;28;20091;-71
2022/02/01 04:04:56;;;;;;;27.80;24.55;;;1.10;70.00;;;;;;5075648;28;20124;-72
2022/02/01 04:07:22;;;;;;;29.85;27.20;;;1.10;70.10;;;;;;5075459;28;20078;-70
2022/02/01 04:09:50;;;;;;;24.20;22.45;;;1.10;70.10;;;;;;5093345;28;20056;-70
2022/02/01 04:12:16;;;;;;;25.27;22.33;;;1.10;70.10;;;;;;5093699;28;20054;-72
2022/02/01 04:14:42;;;;;;;23.38;21.48;;;1.00;70.10;;;;;;5093453;28;20055;-73
2022/02/01 04:17:10;;;;;;;22.88;21.42;;;1.00;70.20;;;;;;5093520;28;20028;-69
2022/02/01 04:19:37;;;;;;;22.10;20.30;;;1.00;70.20;;;;;;5075075;28;20081;-75
2022/02/01 04:22:04;;;;;;;21.55;19.95;;;1.00;70.80;;;;;;5091961;28;20026;-75
2022/02/01 04:24:44;;;;;;;22.15;20.42;;;0.90;70.20;;;;;;5073782;28;20048;-76
2022/02/01 04:27:17;;;;;;;21.60;19.83;;;0.90;70.30;;;;;;5090257;28;20135;-74
2022/02/01 04:29:48;;;;;;;21.88;19.95;;;0.90;70.40;;;;;;5073897;28;20047;-77
2022/02/01 04:32:13;;;;;;;23.73;21.73;;;1.00;70.50;;;;;;5091944;28;20016;-77
2022/02/01 04:34:39;;;;;;;26.20;21.95;;;0.90;70.30;;;;;;5093824;28;20032;-77
2022/02/01 04:37:07;;;;;;;43.97;27.52;;;0.90;70.30;;;;;;5092190;28;20039;-79
2022/02/01 04:39:33;;;;;;;47.72;21.88;;;1.00;70.40;;;;;;5074037;28;20035;-75
2022/02/01 04:41:59;;;;;;;61.75;27.73;;;1.00;70.40;;;;;;5073707;28;20024;-79
2022/02/01 04:44:27;;;;;;;68.82;30.88;;;1.00;70.40;;;;;;5073856;28;20029;-76
2022/02/01 04:46:52;;;;;;;80.15;31.33;;;1.00;70.50;;;;;;5091383;28;20031;-77
2022/02/01 04:49:18;;;;;;;60.53;33.70;;;1.00;70.50;;;;;;5090584;28;20033;-76
2022/02/01 04:51:44;;;;;;;84.45;39.85;;;1.00;70.50;;;;;;5074292;28;20154;-79
2022/02/01 04:54:10;;;;;;;98.25;40.58;;;1.00;70.50;;;;;;5091605;28;20473;-80
2022/02/01 04:56:36;;;;;;;106.75;45.25;;;0.90;70.40;;;;;;5077420;28;20047;-68
2022/02/01 04:59:02;;;;;;;65.72;36.75;;;0.90;70.50;;;;;;5078851;28;20020;-66
2022/02/01 05:01:37;;;;;;;45.15;27.73;;;0.90;70.60;;;;;;5096905;28;20356;-67
2022/02/01 05:04:12;;;;;;;47.88;29.67;;;0.90;70.60;;;;;;5094992;28;20020;-66
2022/02/01 05:06:38;;;;;;;41.15;23.83;;;0.90;70.70;;;;;;5094819;28;20374;-68
2022/02/01 05:09:09;;;;;;;22.38;20.30;;;1.00;70.70;;;;;;5095243;28;20030;-68
2022/02/01 05:11:35;;;;;;;23.63;21.27;;;1.00;70.60;;;;;;5096691;28;20024;-70
2022/02/01 05:16:41;;;;;;;21.67;19.83;;;1.00;71.30;;;;;;5096355;28;20043;-71
2022/02/01 05:19:06;;;;;;;23.50;21.85;;;1.00;70.70;;;;;;5096301;28;20485;-70
2022/02/01 05:21:35;;;;;;;31.38;24.23;;;1.00;70.70;;;;;;5096309;28;20024;-70
2022/02/01 05:24:02;;;;;;;29.83;27.40;;;1.10;70.80;;;;;;5078041;28;20104;-69
2022/02/01 05:26:28;;;;;;;22.92;21.13;;;1.10;70.70;;;;;;5096265;28;20355;-71
2022/02/01 05:28:54;;;;;;;33.25;24.23;;;1.10;70.70;;;;;;5075948;28;20028;-71
2022/02/01 05:31:21;;;;;;;30.00;27.48;;;1.10;70.80;;;;;;5062369;28;20506;-73
2022/02/01 05:33:47;;;;;;;30.92;27.77;;;1.20;70.90;;;;;;5075673;28;20149;-72
2022/02/01 05:36:13;;;;;;;40.30;28.73;;;1.20;70.80;;;;;;5083472;28;20107;-72
2022/02/01 05:38:38;;;;;;;30.73;26.98;;;1.20;70.80;;;;;;5095921;28;20020;-72
2022/02/01 05:41:05;;;;;;;36.13;28.95;;;1.20;70.80;;;;;;5095745;28;20032;-72
2022/02/01 05:43:31;;;;;;;32.40;28.98;;;1.20;70.90;;;;;;5095655;28;20020;-72
2022/02/01 05:46:01;;;;;;;50.45;35.28;;;1.20;70.90;;;;;;5077573;28;20449;-68
2022/02/01 05:48:27;;;;;;;54.75;42.22;;;1.20;70.90;;;;;;5096079;28;20028;-68
2022/02/01 05:50:55;;;;;;;47.25;35.75;;;1.20;70.90;;;;;;5094539;28;20047;-70
2022/02/01 05:53:21;;;;;;;61.72;41.15;;;1.20;71.00;;;;;;5095721;28;20078;-72
2022/02/01 05:55:48;;;;;;;58.63;39.33;;;1.20;71.00;;;;;;5077047;28;20036;-72
2022/02/01 05:58:17;;;;;;;58.17;38.30;;;1.20;70.90;;;;;;5076746;28;20046;-72
2022/02/01 06:00:44;;;;;;;66.25;44.13;;;1.20;71.00;;;;;;5095607;28;20089;-74
2022/02/01 06:03:10;;;;;;;44.95;35.78;;;1.20;71.10;;;;;;5094913;28;20065;-74
